New Meadows, Idaho
Current Conditions -  °F | °C
As of 2:10 AM on Wednesday 22 Oct 2014 (Local Time) from KMYL Reporting Station
Overcast Overcast  
Wind Chill:   Ceiling: 400
Heat Index:   Visibility: 9mi
Dew Point:   Wind: 0mph
Humidity: 96%   Direction: NA
Pressure: 30.08"   Gusts: NA
Location:  44.97°N, 116.28°W
Report Text: KMYL 220810Z AUTO 00000KT 9SM OVC004 02/01 A3008 RMK AO2 T00170011
Loading
Personal Weather Stations






























Interactive Weather Map
Tropical Storm Tracking
New forecast layout! Learn more

10-Day Weather Forecast

Advertisements
Track Severe Weather on mobile